Etusivu
METAR-TAF:

METAR-TAF

Lentoasemat :

Kiruna, Ruotsi

Kiirunan lentoasema

Leveyspiiri: 67-49N, Pituuspiiri: 020-20E, korkeus merenpinnasta: 452 m

Tämänhetkinen sää

Tämä raportti tehtiin 12 tuntia ja 36 minuuttia sitten, kello 14.50 UTC
Tuuli 3 kn lännestä
Lämpötila -17°C
Kosteus 84%
Ilmanpaine 1026 hPa
Näkyvyys 10 km tai enemmän
Hajanaisia pilviä 3500 ft:n korkeudessa

METAR: ESNQ 201450Z 27003KT 9999 SCT035 M17/M19 Q1026

Aika: 04:26 (03:26 UTC)

Sääennuste

Tämä raportti tehtiin 12 tuntia ja 56 minuuttia sitten, kello 14.30 UTC
Ennuste voimassa 20. päivästä klo 15 UTC - 20. päivään klo 24 UTC
Tuuli 2 kn eri suunnista
Näkyvyys 10 km tai enemmän
Hajanaisia pilviä 3000 ft:n korkeudessa

TAF: ESNQ 201430Z 2015/2024 VRB02KT 9999 SCT030

Säähavainnot ja -ennusteet yli 4000 lentoasemalta (METAR- ja TAF-raportit).

Käytössä olevat sääasemat on merkitty karttaan keltaisilla ja punaisilla pisteillä.

Aseta hiiri pisteen päälle nähdäksesi sääaseman nimen.

Klikkaa sitten nähdäksesi säähavainnot ja -ennusteet.

Kartan vaihtaminen: klikkaa mustalla rastilla varustettuja vihreitä pisteitä, niin voit zoomata sisään; viivalla varustettua vihreää pistettä, niin voit zoomata ulos tai vihreitä nuolia, niin pääset viereisille kartoille.


METAR-TAF: